Time;durP1;ratioP1;P1;durP2;ratioP2;P2;SDS_P1;SDS_P2;PMS_P1;PMS_P2;Temp;Humidity;BMP_temperature;BMP_pressure;BME280_temperature;BME280_humidity;BME280_pressure;Samples;Min_cycle;Max_cycle;Signal;HPM_P1;HPM_P2
2022/12/26 00:01:38;;;;;;;85.23;25.00;;;;;;;;;;5017321;28;20445;-73
2022/12/26 00:04:05;;;;;;;81.20;24.43;;;;;;;;;;5034328;28;20452;-73
2022/12/26 00:06:52;;;;;;;82.13;26.17;;;;;;;;;;5037256;28;20498;-73
2022/12/26 00:09:18;;;;;;;66.13;24.23;;;;;;;;;;5052198;28;20422;-73
2022/12/26 00:11:45;;;;;;;59.93;24.20;;;;;;;;;;5050886;28;20543;-73
2022/12/26 00:14:12;;;;;;;61.70;24.47;;;;;;;;;;5051739;28;20463;-73
2022/12/26 00:16:40;;;;;;;77.63;25.27;;;;;;;;;;5051055;28;20565;-73
2022/12/26 00:19:07;;;;;;;74.53;26.63;;;;;;;;;;5034165;28;20518;-73
2022/12/26 00:21:34;;;;;;;89.07;26.33;;;;;;;;;;5034152;28;20429;-73
2022/12/26 00:24:01;;;;;;;93.73;26.80;;;;;;;;;;5033920;28;20429;-73
2022/12/26 00:26:29;;;;;;;76.13;27.47;;;;;;;;;;5033634;28;20465;-73
2022/12/26 00:28:56;;;;;;;75.63;26.13;;;;;;;;;;5032738;28;20522;-73
2022/12/26 00:31:24;;;;;;;88.40;26.73;;;;;;;;;;5033418;28;20585;-73
2022/12/26 00:33:50;;;;;;;66.40;25.83;;;;;;;;;;5033967;28;21313;-73
2022/12/26 00:36:21;;;;;;;65.40;26.60;;;;;;;;;;5033904;28;20545;-73
2022/12/26 00:38:48;;;;;;;69.93;26.87;;;;;;;;;;5047075;28;20478;-73
2022/12/26 00:41:15;;;;;;;71.27;27.23;;;;;;;;;;5051130;28;20426;-73
2022/12/26 00:43:42;;;;;;;71.27;28.17;;;;;;;;;;5033288;28;20472;-73
2022/12/26 00:46:09;;;;;;;69.67;26.77;;;;;;;;;;5051041;28;20428;-73
2022/12/26 00:48:35;;;;;;;69.43;26.97;;;;;;;;;;5051156;28;20970;-73
2022/12/26 00:51:02;;;;;;;71.87;27.97;;;;;;;;;;5032714;28;20948;-73
2022/12/26 00:53:30;;;;;;;70.83;27.47;;;;;;;;;;5043405;28;21078;-73
2022/12/26 00:55:56;;;;;;;69.83;28.10;;;;;;;;;;5052974;28;20463;-73
2022/12/26 00:58:23;;;;;;;75.27;28.73;;;;;;;;;;5070558;28;20505;-73
2022/12/26 01:00:50;;;;;;;61.83;26.00;;;;;;;;;;5070561;28;20450;-73
2022/12/26 01:03:16;;;;;;;58.80;25.17;;;;;;;;;;5071023;28;21095;-73
2022/12/26 01:05:44;;;;;;;61.07;24.80;;;;;;;;;;5052709;28;20428;-73
2022/12/26 01:08:13;;;;;;;65.07;25.63;;;;;;;;;;5053392;28;20514;-73
2022/12/26 01:10:50;;;;;;;63.13;26.23;;;;;;;;;;5070315;28;20432;-73
2022/12/26 01:13:16;;;;;;;63.53;25.77;;;;;;;;;;5049043;28;20467;-73
2022/12/26 01:15:48;;;;;;;63.03;26.00;;;;;;;;;;5049299;28;20449;-73
2022/12/26 01:18:15;;;;;;;58.00;26.30;;;;;;;;;;5032978;28;20428;-73
2022/12/26 01:20:42;;;;;;;57.97;26.67;;;;;;;;;;5016088;28;20441;-73
2022/12/26 01:23:09;;;;;;;65.90;28.20;;;;;;;;;;5050396;28;20936;-73
2022/12/26 01:25:35;;;;;;;71.77;27.93;;;;;;;;;;5032778;28;20432;-73
2022/12/26 01:28:22;;;;;;;65.93;28.97;;;;;;;;;;5049891;28;20557;-73
2022/12/26 01:30:49;;;;;;;69.93;28.77;;;;;;;;;;5050442;28;20456;-73
2022/12/26 01:33:16;;;;;;;64.33;27.60;;;;;;;;;;5050098;28;20556;-73
2022/12/26 01:35:50;;;;;;;63.20;27.23;;;;;;;;;;5049791;28;20479;-73
2022/12/26 01:38:17;;;;;;;70.47;29.40;;;;;;;;;;5050076;28;20417;-73
2022/12/26 01:40:43;;;;;;;67.37;27.63;;;;;;;;;;5049564;28;20952;-73
2022/12/26 01:43:11;;;;;;;62.80;28.80;;;;;;;;;;5049945;28;20421;-74
2022/12/26 01:45:55;;;;;;;69.60;29.20;;;;;;;;;;5049870;28;20506;-73
2022/12/26 01:48:24;;;;;;;75.17;28.90;;;;;;;;;;5015723;28;20887;-73
2022/12/26 01:50:58;;;;;;;74.63;29.17;;;;;;;;;;5015861;28;20445;-73
2022/12/26 01:53:27;;;;;;;75.80;28.63;;;;;;;;;;5059203;28;20479;-74
2022/12/26 01:55:56;;;;;;;71.10;28.63;;;;;;;;;;5069786;28;20424;-73
2022/12/26 01:58:27;;;;;;;81.03;28.50;;;;;;;;;;5051864;28;20428;-74
2022/12/26 02:00:53;;;;;;;67.53;29.37;;;;;;;;;;5051914;28;21140;-74
2022/12/26 02:06:25;;;;;;;61.77;27.67;;;;;;;;;;5057196;28;20431;-74
2022/12/26 02:08:52;;;;;;;64.97;27.50;;;;;;;;;;5035187;28;20441;-74
2022/12/26 02:11:32;;;;;;;66.47;27.20;;;;;;;;;;5051556;28;20448;-74
2022/12/26 02:13:59;;;;;;;53.67;25.47;;;;;;;;;;5046954;28;20452;-74
2022/12/26 02:16:43;;;;;;;57.33;25.83;;;;;;;;;;5049340;28;20477;-74
2022/12/26 02:19:29;;;;;;;56.90;25.80;;;;;;;;;;5015401;28;20448;-74
2022/12/26 02:22:08;;;;;;;54.93;24.70;;;;;;;;;;5049389;28;20437;-74
2022/12/26 02:24:44;;;;;;;56.30;24.80;;;;;;;;;;5032065;28;20524;-74
2022/12/26 02:27:40;;;;;;;60.57;26.37;;;;;;;;;;5049224;28;20425;-74
2022/12/26 02:30:07;;;;;;;58.10;26.17;;;;;;;;;;5049309;28;21278;-74
2022/12/26 02:32:44;;;;;;;60.20;26.50;;;;;;;;;;5049166;28;20473;-74
2022/12/26 02:35:14;;;;;;;61.07;27.37;;;;;;;;;;5031809;28;20518;-74
2022/12/26 02:38:05;;;;;;;59.60;27.20;;;;;;;;;;5016933;28;20429;-74
2022/12/26 02:40:38;;;;;;;55.20;25.60;;;;;;;;;;5047879;28;21041;-74
2022/12/26 02:43:04;;;;;;;54.77;25.60;;;;;;;;;;5048941;28;20532;-75
2022/12/26 02:49:05;;;;;;;52.37;23.93;;;;;;;;;;5036648;28;20491;-74
2022/12/26 03:14:22;;;;;;;42.17;20.00;;;;;;;;;;5057415;28;21030;-74
2022/12/26 03:19:35;;;;;;;41.07;20.60;;;;;;;;;;5057756;28;20434;-74
2022/12/26 03:22:31;;;;;;;42.87;20.40;;;;;;;;;;5057351;28;20771;-74
2022/12/26 03:27:44;;;;;;;44.07;21.87;;;;;;;;;;5037178;28;20445;-74
2022/12/26 03:32:56;;;;;;;51.33;23.27;;;;;;;;;;5052249;28;20480;-74
2022/12/26 03:35:23;;;;;;;52.87;25.50;;;;;;;;;;5052258;28;20471;-74
2022/12/26 03:37:50;;;;;;;48.87;23.90;;;;;;;;;;5033785;28;20465;-74
2022/12/26 04:21:05;;;;;;;49.53;24.73;;;;;;;;;;5036595;28;20448;-75
2022/12/26 04:46:21;;;;;;;34.87;18.37;;;;;;;;;;5036081;28;20437;-75
2022/12/26 04:51:34;;;;;;;30.83;16.50;;;;;;;;;;5051367;28;20749;-75
2022/12/26 04:54:01;;;;;;;30.57;16.33;;;;;;;;;;5063907;28;20520;-75
2022/12/26 04:56:27;;;;;;;27.90;16.23;;;;;;;;;;5052992;28;21018;-75
2022/12/26 04:58:54;;;;;;;25.03;15.13;;;;;;;;;;5069804;28;21214;-75
2022/12/26 05:09:38;;;;;;;21.57;12.80;;;;;;;;;;5070963;28;20515;-75
2022/12/26 05:12:23;;;;;;;21.50;12.37;;;;;;;;;;5069471;28;20210;-75
2022/12/26 05:14:49;;;;;;;23.33;13.90;;;;;;;;;;5069990;28;20470;-75
2022/12/26 05:28:40;;;;;;;25.30;13.93;;;;;;;;;;5050110;28;20431;-75
2022/12/26 05:31:08;;;;;;;29.33;14.83;;;;;;;;;;5048668;28;20428;-75
2022/12/26 05:36:20;;;;;;;36.23;18.97;;;;;;;;;;5035325;28;20441;-75
2022/12/26 05:38:47;;;;;;;44.67;20.93;;;;;;;;;;5032258;28;20440;-75
2022/12/26 05:41:15;;;;;;;49.50;20.57;;;;;;;;;;5048836;28;20507;-75
2022/12/26 05:43:41;;;;;;;43.37;20.43;;;;;;;;;;5032075;28;20436;-75
2022/12/26 05:46:09;;;;;;;40.77;22.10;;;;;;;;;;5050042;28;20943;-75
2022/12/26 05:48:35;;;;;;;38.10;19.57;;;;;;;;;;5049973;28;20524;-75
2022/12/26 05:51:02;;;;;;;33.60;18.17;;;;;;;;;;5049891;28;20540;-75
2022/12/26 05:53:29;;;;;;;27.27;15.97;;;;;;;;;;5059845;28;20468;-75
2022/12/26 05:56:01;;;;;;;18.83;12.03;;;;;;;;;;5048074;28;20453;-75
2022/12/26 05:58:27;;;;;;;18.10;11.13;;;;;;;;;;5049647;28;20448;-75
2022/12/26 06:01:02;;;;;;;18.37;11.23;;;;;;;;;;5032436;28;20440;-75
2022/12/26 06:03:29;;;;;;;17.57;10.17;;;;;;;;;;5032500;28;20498;-76
2022/12/26 06:05:56;;;;;;;17.20;9.07;;;;;;;;;;5032224;28;20476;-75
2022/12/26 06:08:25;;;;;;;18.13;10.40;;;;;;;;;;5032364;28;20920;-76
2022/12/26 06:10:52;;;;;;;16.03;10.03;;;;;;;;;;5049530;28;20516;-75
2022/12/26 06:13:19;;;;;;;17.80;10.53;;;;;;;;;;5049508;28;21064;-76
2022/12/26 06:15:46;;;;;;;17.97;10.23;;;;;;;;;;5032122;28;20475;-75
2022/12/26 06:18:13;;;;;;;18.23;11.03;;;;;;;;;;5032482;28;20493;-75
2022/12/26 06:20:39;;;;;;;19.20;11.23;;;;;;;;;;5032311;28;21168;-76
2022/12/26 06:23:06;;;;;;;14.57;9.10;;;;;;;;;;5049474;28;20452;-75
2022/12/26 06:25:33;;;;;;;19.93;11.40;;;;;;;;;;5049738;28;20455;-75
2022/12/26 06:28:00;;;;;;;19.40;11.37;;;;;;;;;;5048955;28;20451;-75
2022/12/26 06:30:26;;;;;;;19.00;11.87;;;;;;;;;;5049763;28;20445;-76
2022/12/26 06:32:53;;;;;;;18.40;10.73;;;;;;;;;;5049745;28;21042;-75
2022/12/26 06:35:19;;;;;;;15.93;9.53;;;;;;;;;;5049394;28;20491;-75
2022/12/26 06:37:46;;;;;;;15.87;9.77;;;;;;;;;;5049609;28;20437;-76
2022/12/26 06:40:13;;;;;;;17.13;9.13;;;;;;;;;;5049688;28;20426;-76
2022/12/26 06:42:40;;;;;;;14.17;8.77;;;;;;;;;;5049801;28;20429;-76
2022/12/26 06:45:07;;;;;;;14.20;9.00;;;;;;;;;;5050158;28;20819;-75
2022/12/26 06:47:33;;;;;;;14.93;9.40;;;;;;;;;;5031727;28;20460;-76
2022/12/26 06:53:16;;;;;;;11.70;7.97;;;;;;;;;;5051272;28;20482;-75
2022/12/26 06:56:07;;;;;;;12.67;7.67;;;;;;;;;;5069503;28;20471;-75
2022/12/26 06:58:33;;;;;;;13.00;7.80;;;;;;;;;;5069489;28;20443;-76
2022/12/26 07:01:07;;;;;;;12.03;7.87;;;;;;;;;;5069409;28;20428;-75
2022/12/26 07:03:34;;;;;;;13.73;7.40;;;;;;;;;;5052077;28;20435;-75
2022/12/26 07:06:04;;;;;;;11.57;7.43;;;;;;;;;;5066443;28;20489;-75
2022/12/26 07:08:32;;;;;;;12.50;7.47;;;;;;;;;;5046001;28;20187;-75
2022/12/26 07:10:59;;;;;;;11.60;6.03;;;;;;;;;;5049111;28;20537;-75
2022/12/26 07:13:28;;;;;;;10.87;7.13;;;;;;;;;;5031866;28;20495;-75
2022/12/26 07:15:57;;;;;;;10.13;6.73;;;;;;;;;;5031585;28;20448;-75
2022/12/26 07:18:24;;;;;;;13.30;7.67;;;;;;;;;;5048949;28;20491;-75
2022/12/26 07:21:10;;;;;;;8.53;6.17;;;;;;;;;;5049136;28;20429;-75
2022/12/26 07:23:36;;;;;;;7.97;6.00;;;;;;;;;;5049226;28;20437;-75
2022/12/26 07:26:03;;;;;;;8.90;6.47;;;;;;;;;;5028016;28;20434;-75
2022/12/26 07:28:30;;;;;;;8.70;6.03;;;;;;;;;;5045438;28;20179;-75
2022/12/26 07:30:59;;;;;;;9.80;6.20;;;;;;;;;;5031443;28;20870;-75
2022/12/26 07:33:26;;;;;;;9.13;6.47;;;;;;;;;;5031783;28;20457;-75
2022/12/26 07:35:53;;;;;;;9.07;6.60;;;;;;;;;;5049094;28;20461;-75
2022/12/26 07:38:19;;;;;;;9.73;6.60;;;;;;;;;;5032706;28;20171;-75
2022/12/26 07:40:46;;;;;;;9.77;7.23;;;;;;;;;;5034696;28;20440;-75
2022/12/26 07:43:13;;;;;;;12.97;10.47;;;;;;;;;;5052645;28;20191;-75
2022/12/26 07:45:40;;;;;;;10.00;7.00;;;;;;;;;;5035076;28;20202;-75
2022/12/26 07:48:11;;;;;;;7.90;6.10;;;;;;;;;;5050924;28;20839;-75
2022/12/26 07:50:38;;;;;;;8.93;6.07;;;;;;;;;;5071524;28;20352;-74
2022/12/26 07:53:05;;;;;;;8.90;6.00;;;;;;;;;;5072072;28;20518;-75
2022/12/26 07:55:32;;;;;;;10.03;6.80;;;;;;;;;;5072366;28;20304;-75
2022/12/26 07:57:58;;;;;;;10.40;7.30;;;;;;;;;;5072033;28;20200;-75
2022/12/26 08:00:25;;;;;;;8.20;6.50;;;;;;;;;;5054495;28;20598;-75
2022/12/26 08:02:53;;;;;;;7.90;5.70;;;;;;;;;;5072224;28;20395;-75
2022/12/26 08:05:20;;;;;;;8.47;6.13;;;;;;;;;;5057451;28;20754;-75
2022/12/26 08:07:47;;;;;;;8.20;6.40;;;;;;;;;;5052154;28;20753;-75
2022/12/26 08:10:15;;;;;;;32.67;14.30;;;;;;;;;;5034182;28;20857;-75
2022/12/26 08:12:42;;;;;;;76.07;28.27;;;;;;;;;;5051207;28;20449;-75
2022/12/26 08:15:10;;;;;;;26.40;12.80;;;;;;;;;;5052199;28;20433;-75
2022/12/26 08:17:37;;;;;;;13.10;7.87;;;;;;;;;;5034246;28;20244;-75
2022/12/26 08:20:04;;;;;;;9.57;6.43;;;;;;;;;;5051963;28;20429;-75
2022/12/26 08:22:32;;;;;;;9.10;6.10;;;;;;;;;;5052000;28;20436;-75
2022/12/26 08:24:59;;;;;;;8.07;6.13;;;;;;;;;;5051316;28;20187;-75
2022/12/26 08:27:26;;;;;;;8.53;6.07;;;;;;;;;;5034512;28;20433;-75
2022/12/26 08:29:53;;;;;;;10.07;6.83;;;;;;;;;;5034034;28;20453;-75
2022/12/26 08:32:20;;;;;;;12.57;7.17;;;;;;;;;;5051655;28;20436;-75
2022/12/26 08:34:47;;;;;;;10.57;7.00;;;;;;;;;;5051627;28;20218;-75
2022/12/26 08:37:13;;;;;;;11.50;7.77;;;;;;;;;;5051780;28;20245;-75
2022/12/26 08:39:40;;;;;;;11.23;7.63;;;;;;;;;;5051749;28;20573;-75
2022/12/26 08:42:08;;;;;;;9.33;7.00;;;;;;;;;;5033794;28;20186;-75
2022/12/26 08:44:35;;;;;;;9.40;6.73;;;;;;;;;;5049836;28;20198;-75
2022/12/26 08:47:01;;;;;;;10.27;7.30;;;;;;;;;;5033492;28;20218;-75
2022/12/26 08:49:28;;;;;;;11.27;7.17;;;;;;;;;;5050568;28;20222;-75
2022/12/26 08:51:55;;;;;;;9.73;7.30;;;;;;;;;;5033748;28;20676;-75
2022/12/26 08:54:25;;;;;;;10.00;7.77;;;;;;;;;;5067306;28;20612;-75
2022/12/26 08:56:52;;;;;;;10.10;7.83;;;;;;;;;;5053557;28;20209;-75
2022/12/26 08:59:20;;;;;;;12.57;8.40;;;;;;;;;;5053247;28;20433;-75
2022/12/26 09:01:49;;;;;;;15.37;9.50;;;;;;;;;;5070403;28;20190;-75
2022/12/26 09:04:17;;;;;;;13.63;9.23;;;;;;;;;;5051031;28;20194;-76
2022/12/26 09:06:45;;;;;;;13.57;9.33;;;;;;;;;;5033236;28;20202;-75
2022/12/26 09:09:12;;;;;;;11.87;8.73;;;;;;;;;;5033303;28;20194;-75
2022/12/26 09:11:39;;;;;;;9.63;7.67;;;;;;;;;;5050447;28;20195;-75
2022/12/26 09:14:06;;;;;;;12.57;9.00;;;;;;;;;;5050399;28;20265;-75
2022/12/26 09:16:35;;;;;;;12.20;9.20;;;;;;;;;;5051020;28;20202;-75
2022/12/26 09:19:08;;;;;;;12.83;8.70;;;;;;;;;;5033684;28;20190;-75
2022/12/26 09:21:35;;;;;;;11.27;8.03;;;;;;;;;;5050743;28;20193;-75
2022/12/26 09:24:07;;;;;;;15.83;10.53;;;;;;;;;;5050448;28;20684;-75
2022/12/26 09:26:34;;;;;;;11.43;8.90;;;;;;;;;;5035321;28;20217;-75
2022/12/26 09:29:01;;;;;;;12.83;8.77;;;;;;;;;;5050053;28;20237;-75
2022/12/26 09:31:29;;;;;;;13.07;9.33;;;;;;;;;;5050296;28;20194;-75
2022/12/26 09:33:56;;;;;;;12.93;9.60;;;;;;;;;;5049129;28;20203;-75
2022/12/26 09:36:25;;;;;;;19.93;11.87;;;;;;;;;;5032515;28;20198;-75
2022/12/26 09:38:51;;;;;;;16.80;11.37;;;;;;;;;;5049448;28;20257;-75
2022/12/26 09:41:26;;;;;;;16.50;11.57;;;;;;;;;;5050584;28;20191;-75
2022/12/26 09:44:05;;;;;;;16.90;11.03;;;;;;;;;;5046454;28;20205;-75
2022/12/26 09:46:33;;;;;;;19.77;12.13;;;;;;;;;;5032233;28;20191;-74
2022/12/26 09:49:15;;;;;;;15.10;10.20;;;;;;;;;;5050216;28;20238;-75
2022/12/26 09:51:43;;;;;;;17.60;11.40;;;;;;;;;;5032773;28;20210;-75
2022/12/26 09:54:14;;;;;;;18.03;12.30;;;;;;;;;;5047997;28;20210;-75
2022/12/26 09:56:41;;;;;;;18.73;12.23;;;;;;;;;;5052523;28;20190;-75
2022/12/26 09:59:30;;;;;;;20.57;12.93;;;;;;;;;;5069907;28;20224;-75
2022/12/26 10:01:57;;;;;;;18.70;13.23;;;;;;;;;;5052283;28;20212;-75
2022/12/26 10:04:26;;;;;;;20.00;14.07;;;;;;;;;;5035576;28;20796;-76
2022/12/26 10:07:03;;;;;;;22.10;13.80;;;;;;;;;;5052375;28;20174;-76
2022/12/26 10:09:56;;;;;;;23.23;14.57;;;;;;;;;;5055075;28;20249;-75
2022/12/26 10:12:31;;;;;;;23.27;14.20;;;;;;;;;;5069892;28;20213;-75
2022/12/26 10:15:43;;;;;;;21.47;13.97;;;;;;;;;;5070076;28;20210;-75
2022/12/26 10:18:17;;;;;;;20.67;12.70;;;;;;;;;;5052120;28;20229;-75
2022/12/26 10:20:55;;;;;;;22.20;13.77;;;;;;;;;;5049495;28;20194;-74
2022/12/26 10:23:31;;;;;;;21.17;13.07;;;;;;;;;;5049453;28;20201;-74
2022/12/26 10:26:36;;;;;;;27.03;16.17;;;;;;;;;;5032200;28;20676;-75
2022/12/26 10:29:07;;;;;;;23.37;15.17;;;;;;;;;;5007472;28;20204;-75
2022/12/26 10:32:06;;;;;;;24.00;15.13;;;;;;;;;;5007786;28;20177;-76
2022/12/26 10:34:36;;;;;;;21.83;15.23;;;;;;;;;;5026117;28;20219;-75
2022/12/26 10:37:35;;;;;;;26.20;16.93;;;;;;;;;;5031676;28;20193;-75
2022/12/26 10:40:07;;;;;;;27.10;17.13;;;;;;;;;;5027334;28;20724;-75
2022/12/26 10:42:38;;;;;;;31.87;17.73;;;;;;;;;;5015487;28;20658;-75
2022/12/26 10:45:23;;;;;;;27.10;17.03;;;;;;;;;;5049799;28;20197;-75
2022/12/26 10:47:50;;;;;;;33.57;19.50;;;;;;;;;;5031940;28;20260;-75
2022/12/26 10:50:22;;;;;;;38.30;20.87;;;;;;;;;;5057073;28;20229;-75
2022/12/26 10:52:53;;;;;;;38.33;21.73;;;;;;;;;;5089506;28;20185;-75
2022/12/26 10:55:22;;;;;;;39.87;23.73;;;;;;;;;;5071698;28;20227;-75
2022/12/26 10:57:55;;;;;;;39.57;22.43;;;;;;;;;;5055732;28;20197;-75
2022/12/26 11:00:23;;;;;;;35.80;21.90;;;;;;;;;;5055176;28;20200;-74
2022/12/26 11:03:17;;;;;;;37.10;21.67;;;;;;;;;;5071736;28;20189;-75
2022/12/26 11:05:47;;;;;;;38.03;21.00;;;;;;;;;;5074314;28;20857;-75
2022/12/26 11:08:53;;;;;;;34.50;22.10;;;;;;;;;;5054702;28;20191;-75
2022/12/26 11:11:22;;;;;;;27.87;17.03;;;;;;;;;;5051388;28;20198;-74
2022/12/26 11:13:51;;;;;;;22.93;14.20;;;;;;;;;;5053153;28;20271;-74
2022/12/26 11:16:30;;;;;;;18.90;12.67;;;;;;;;;;5056580;28;20193;-74
2022/12/26 11:19:28;;;;;;;19.50;11.43;;;;;;;;;;5054953;28;20166;-74
2022/12/26 11:22:12;;;;;;;9.00;6.13;;;;;;;;;;5052111;28;20190;-74
2022/12/26 11:24:39;;;;;;;11.97;7.83;;;;;;;;;;5054946;28;20202;-74
2022/12/26 11:27:15;;;;;;;12.37;8.10;;;;;;;;;;5071989;28;20198;-75
2022/12/26 11:30:14;;;;;;;9.70;7.43;;;;;;;;;;5054885;28;20257;-75
2022/12/26 11:32:41;;;;;;;10.83;6.37;;;;;;;;;;5071534;28;20290;-74
2022/12/26 11:35:25;;;;;;;8.83;6.30;;;;;;;;;;5071798;28;20214;-75
2022/12/26 11:37:56;;;;;;;9.20;5.90;;;;;;;;;;5071557;28;20775;-75
2022/12/26 11:41:30;;;;;;;8.33;5.47;;;;;;;;;;5072804;28;20170;-75
2022/12/26 11:43:32;;;;;;;6.90;4.37;;;;;;;;;;5072405;28;20254;-75
2022/12/26 11:45:59;;;;;;;7.37;4.20;;;;;;;;;;5071008;28;20560;-75
2022/12/26 11:48:26;;;;;;;7.50;4.90;;;;;;;;;;5054864;28;20204;-75
2022/12/26 11:50:53;;;;;;;6.40;4.67;;;;;;;;;;5054275;28;20634;-75
2022/12/26 11:53:37;;;;;;;7.37;4.93;;;;;;;;;;5068188;28;20174;-75
2022/12/26 11:56:04;;;;;;;7.73;4.47;;;;;;;;;;5074775;28;20193;-75
2022/12/26 11:58:33;;;;;;;8.43;5.33;;;;;;;;;;5092444;28;20223;-74
2022/12/26 12:01:00;;;;;;;7.13;4.87;;;;;;;;;;5074493;28;20192;-75
2022/12/26 12:03:33;;;;;;;7.00;4.93;;;;;;;;;;5079245;28;20198;-74
2022/12/26 12:06:19;;;;;;;6.73;5.00;;;;;;;;;;5072077;28;20282;-75
2022/12/26 12:08:56;;;;;;;6.97;4.50;;;;;;;;;;5071018;28;20570;-75
2022/12/26 12:11:31;;;;;;;6.50;4.20;;;;;;;;;;5070947;28;20247;-75
2022/12/26 12:14:17;;;;;;;7.97;5.23;;;;;;;;;;5071737;28;20217;-75
2022/12/26 12:17:11;;;;;;;8.10;5.20;;;;;;;;;;5072247;28;20227;-74
2022/12/26 12:19:42;;;;;;;8.83;5.20;;;;;;;;;;5071198;28;20217;-75
2022/12/26 12:22:23;;;;;;;7.83;4.50;;;;;;;;;;5071739;28;20727;-75
2022/12/26 12:25:06;;;;;;;8.67;5.07;;;;;;;;;;5069845;28;20320;-75
2022/12/26 12:28:09;;;;;;;2.20;1.37;;;;;;;;;;5071739;28;20177;-75
2022/12/26 12:30:37;;;;;;;3.03;1.97;;;;;;;;;;5072035;28;20217;-75
2022/12/26 12:33:10;;;;;;;2.10;1.50;;;;;;;;;;5071607;28;20190;-76
2022/12/26 12:35:40;;;;;;;1.53;1.10;;;;;;;;;;5071848;28;20622;-76
2022/12/26 12:38:34;;;;;;;2.70;1.70;;;;;;;;;;5071496;28;20938;-75
2022/12/26 12:41:19;;;;;;;2.53;1.63;;;;;;;;;;5053987;28;20692;-75
2022/12/26 12:43:53;;;;;;;2.17;1.27;;;;;;;;;;5070286;28;20205;-75
2022/12/26 12:46:27;;;;;;;1.43;1.20;;;;;;;;;;5054607;28;20538;-75
2022/12/26 12:49:18;;;;;;;2.13;1.50;;;;;;;;;;5071418;28;20253;-75
2022/12/26 12:51:48;;;;;;;2.33;1.70;;;;;;;;;;5071910;28;20217;-75
2022/12/26 12:54:17;;;;;;;3.13;1.77;;;;;;;;;;5071748;28;20237;-76
2022/12/26 12:56:45;;;;;;;1.90;1.20;;;;;;;;;;5053214;28;20190;-76
2022/12/26 12:59:19;;;;;;;2.03;1.30;;;;;;;;;;5071165;28;20182;-76
2022/12/26 13:01:46;;;;;;;2.10;1.67;;;;;;;;;;5053971;28;20193;-76
2022/12/26 13:04:17;;;;;;;4.07;1.50;;;;;;;;;;5053613;28;20526;-75
2022/12/26 13:06:44;;;;;;;2.23;1.60;;;;;;;;;;5036802;28;20321;-76
2022/12/26 13:09:13;;;;;;;3.13;1.53;;;;;;;;;;5053019;28;20198;-76
2022/12/26 13:11:44;;;;;;;2.37;1.60;;;;;;;;;;5036630;28;20202;-76
2022/12/26 13:14:16;;;;;;;2.80;1.93;;;;;;;;;;5053484;28;20218;-76
2022/12/26 13:16:46;;;;;;;4.13;2.20;;;;;;;;;;5053374;28;20265;-76
2022/12/26 13:19:21;;;;;;;3.77;2.20;;;;;;;;;;5052578;28;20198;-76
2022/12/26 13:21:49;;;;;;;3.10;2.07;;;;;;;;;;5068516;28;20200;-75
2022/12/26 13:24:34;;;;;;;2.67;2.20;;;;;;;;;;5055692;28;20256;-75
2022/12/26 13:27:19;;;;;;;3.93;2.70;;;;;;;;;;5052746;28;20276;-75
2022/12/26 13:29:48;;;;;;;3.63;2.37;;;;;;;;;;5070258;28;20166;-75
2022/12/26 13:32:22;;;;;;;4.23;2.83;;;;;;;;;;5052135;28;20194;-75
2022/12/26 13:35:25;;;;;;;4.30;3.03;;;;;;;;;;5055251;28;20220;-75
2022/12/26 13:37:56;;;;;;;5.63;3.23;;;;;;;;;;5067326;28;20201;-75
2022/12/26 13:40:28;;;;;;;6.10;3.00;;;;;;;;;;5069071;28;20189;-75
2022/12/26 13:46:00;;;;;;;4.63;3.00;;;;;;;;;;5057302;28;20537;-75
2022/12/26 13:48:31;;;;;;;4.80;3.67;;;;;;;;;;5070587;28;20193;-75
2022/12/26 13:50:59;;;;;;;4.93;3.00;;;;;;;;;;5068562;28;20237;-75
2022/12/26 13:53:36;;;;;;;4.97;3.57;;;;;;;;;;5062060;28;20194;-75
2022/12/26 13:56:20;;;;;;;7.03;4.90;;;;;;;;;;5074691;28;20212;-75
2022/12/26 13:59:02;;;;;;;6.87;4.87;;;;;;;;;;5071633;28;20216;-74
2022/12/26 14:01:32;;;;;;;8.37;5.70;;;;;;;;;;5090107;28;20200;-75
2022/12/26 14:04:00;;;;;;;8.77;5.37;;;;;;;;;;5089769;28;20286;-75
2022/12/26 14:06:32;;;;;;;7.80;5.63;;;;;;;;;;5090519;28;20215;-75
2022/12/26 14:09:26;;;;;;;9.83;6.40;;;;;;;;;;5073225;28;20170;-75
2022/12/26 14:12:11;;;;;;;8.47;5.70;;;;;;;;;;5051667;28;20688;-75
2022/12/26 14:14:48;;;;;;;8.80;5.17;;;;;;;;;;5069278;28;20229;-75
2022/12/26 14:17:20;;;;;;;5.40;3.77;;;;;;;;;;5069534;28;20192;-75
2022/12/26 14:19:59;;;;;;;3.80;2.10;;;;;;;;;;5069557;28;20191;-75
2022/12/26 14:22:29;;;;;;;3.70;2.03;;;;;;;;;;5069093;28;20194;-75
2022/12/26 14:24:56;;;;;;;3.37;2.07;;;;;;;;;;5061303;28;20672;-75
2022/12/26 14:27:22;;;;;;;2.77;1.60;;;;;;;;;;5051184;28;20196;-75
2022/12/26 14:30:08;;;;;;;3.27;1.70;;;;;;;;;;5068205;28;20198;-75
2022/12/26 14:32:59;;;;;;;3.57;2.23;;;;;;;;;;5067224;28;20205;-75
2022/12/26 14:35:30;;;;;;;3.53;2.43;;;;;;;;;;5068164;28;20264;-75
2022/12/26 14:38:19;;;;;;;4.23;2.73;;;;;;;;;;5069195;28;20217;-75
2022/12/26 14:41:03;;;;;;;4.87;2.93;;;;;;;;;;5051360;28;20218;-75
2022/12/26 14:43:40;;;;;;;4.07;2.33;;;;;;;;;;5066526;28;20204;-75
2022/12/26 14:46:27;;;;;;;4.20;2.70;;;;;;;;;;5068094;28;20193;-75
2022/12/26 14:48:54;;;;;;;4.37;2.83;;;;;;;;;;5068661;28;20201;-75
2022/12/26 14:51:27;;;;;;;5.37;4.13;;;;;;;;;;5019574;28;20740;-75
2022/12/26 14:54:13;;;;;;;4.73;3.47;;;;;;;;;;5049031;28;20220;-75
2022/12/26 14:56:40;;;;;;;8.57;5.77;;;;;;;;;;5073080;28;20177;-75
2022/12/26 14:59:15;;;;;;;9.00;6.40;;;;;;;;;;5073158;28;20190;-75
2022/12/26 15:01:45;;;;;;;7.20;4.87;;;;;;;;;;5072981;28;20194;-75
2022/12/26 15:04:17;;;;;;;8.17;4.03;;;;;;;;;;5055795;28;20194;-75
2022/12/26 15:07:04;;;;;;;6.30;4.27;;;;;;;;;;5073191;28;20281;-75
2022/12/26 15:09:59;;;;;;;7.03;4.17;;;;;;;;;;5055010;28;20255;-75
2022/12/26 15:12:26;;;;;;;6.57;4.80;;;;;;;;;;5069306;28;20203;-75
2022/12/26 15:14:56;;;;;;;4.80;3.50;;;;;;;;;;5041932;28;20757;-75
2022/12/26 15:17:27;;;;;;;5.50;4.27;;;;;;;;;;5051147;28;20245;-74
2022/12/26 15:20:13;;;;;;;6.43;4.47;;;;;;;;;;5072452;28;21022;-74
2022/12/26 15:22:40;;;;;;;5.43;4.43;;;;;;;;;;5092597;28;20739;-74
2022/12/26 15:25:14;;;;;;;5.80;4.17;;;;;;;;;;5077686;28;20198;-74
2022/12/26 15:27:53;;;;;;;7.70;5.30;;;;;;;;;;5054028;28;20190;-74
2022/12/26 15:30:41;;;;;;;8.40;5.67;;;;;;;;;;5065230;28;20288;-74
2022/12/26 15:33:08;;;;;;;6.90;5.17;;;;;;;;;;5087968;28;20228;-74
2022/12/26 15:35:42;;;;;;;7.47;5.23;;;;;;;;;;5054852;28;20305;-75
2022/12/26 15:38:30;;;;;;;6.53;4.40;;;;;;;;;;5077471;28;20287;-75
2022/12/26 15:41:30;;;;;;;5.73;4.33;;;;;;;;;;5068748;28;20201;-74
2022/12/26 15:43:57;;;;;;;5.93;3.93;;;;;;;;;;5050850;28;20202;-74
2022/12/26 15:46:29;;;;;;;6.20;4.13;;;;;;;;;;5078949;28;20269;-74
2022/12/26 15:49:15;;;;;;;5.80;4.40;;;;;;;;;;5067074;28;20316;-73
2022/12/26 15:51:56;;;;;;;6.33;4.30;;;;;;;;;;5089469;28;20192;-70
2022/12/26 15:54:46;;;;;;;7.47;4.83;;;;;;;;;;5089952;28;20226;-73
2022/12/26 15:57:32;;;;;;;7.17;4.93;;;;;;;;;;5091763;28;20654;-75
2022/12/26 16:00:14;;;;;;;9.03;5.83;;;;;;;;;;5098560;28;20214;-71
2022/12/26 16:02:49;;;;;;;7.33;5.10;;;;;;;;;;5112373;28;20184;-71
2022/12/26 16:05:26;;;;;;;9.47;6.07;;;;;;;;;;5112565;28;20198;-72
2022/12/26 16:07:56;;;;;;;12.40;6.90;;;;;;;;;;5081653;28;20388;-71
2022/12/26 16:10:27;;;;;;;12.50;7.00;;;;;;;;;;5052838;28;20190;-72
2022/12/26 16:12:58;;;;;;;10.57;6.83;;;;;;;;;;5074876;28;20652;-72
2022/12/26 16:15:25;;;;;;;11.50;5.67;;;;;;;;;;5082109;28;20307;-72
2022/12/26 16:17:51;;;;;;;13.03;6.80;;;;;;;;;;5080666;28;20191;-72
2022/12/26 16:23:25;;;;;;;11.87;6.67;;;;;;;;;;5088175;28;20197;-72
2022/12/26 16:25:53;;;;;;;9.93;5.07;;;;;;;;;;5072031;28;20193;-74
2022/12/26 16:28:34;;;;;;;8.33;5.13;;;;;;;;;;5066327;28;20208;-74
2022/12/26 16:31:02;;;;;;;8.70;4.90;;;;;;;;;;5071966;28;20223;-74
2022/12/26 16:33:30;;;;;;;9.17;5.73;;;;;;;;;;5072793;28;20192;-74
2022/12/26 16:35:57;;;;;;;7.80;5.70;;;;;;;;;;5076825;28;20228;-74
2022/12/26 16:38:28;;;;;;;6.77;4.50;;;;;;;;;;5054305;28;20193;-74
2022/12/26 16:40:59;;;;;;;7.73;5.17;;;;;;;;;;5080508;28;20225;-74
2022/12/26 16:43:33;;;;;;;9.47;5.60;;;;;;;;;;5087102;28;20682;-74
2022/12/26 16:46:02;;;;;;;6.07;4.77;;;;;;;;;;5074697;28;20247;-74
2022/12/26 16:48:30;;;;;;;8.20;5.57;;;;;;;;;;5089613;28;20735;-74
2022/12/26 16:50:58;;;;;;;8.17;4.90;;;;;;;;;;5072928;28;20633;-74
2022/12/26 16:53:36;;;;;;;6.77;4.83;;;;;;;;;;5073258;28;20259;-74
2022/12/26 16:56:26;;;;;;;6.37;4.67;;;;;;;;;;5076120;28;20213;-72
2022/12/26 16:59:00;;;;;;;6.60;4.67;;;;;;;;;;5072468;28;20217;-74
2022/12/26 17:01:31;;;;;;;6.37;4.03;;;;;;;;;;5062897;28;20181;-74
2022/12/26 17:04:04;;;;;;;6.57;5.03;;;;;;;;;;5038820;28;20891;-72
2022/12/26 17:06:37;;;;;;;8.57;5.23;;;;;;;;;;5043415;28;20645;-72
2022/12/26 17:09:30;;;;;;;6.40;4.97;;;;;;;;;;5074013;28;20292;-73
2022/12/26 17:12:10;;;;;;;6.27;4.80;;;;;;;;;;5061724;28;20929;-72
2022/12/26 17:14:59;;;;;;;6.80;5.20;;;;;;;;;;5076855;28;20217;-76
2022/12/26 17:17:38;;;;;;;7.67;5.60;;;;;;;;;;5081484;28;20976;-75
2022/12/26 17:20:22;;;;;;;8.10;6.13;;;;;;;;;;5076895;28;20195;-76